aviador You're here:

CYYN Decoded Metar

SWIFT CURRENT in SK, CANADA
Report Time2018-07-23 15:00:00
UTC Time2018-07-23 15:40:52
Flight Rules vfr VFR
Wind320° at 10 kt
W.Decomp.*RWY 30: 9.9 kt HW 1.2 kt RCW
RWY 22: 0.5 kt HW 10.0 kt RCW
W.Rank320° ranks 16
Current wind is below 320° avg. (12.5)
Visibility9999 m
Phenomena:N/A
Clouds:N/A
Expected CloudBase > 2,800 ft AGL from Temp-Dew spread
CeilingNone
Temp15°C (ISA +5)
Dew Point08°C (63% RH)
AAT10.9°C
QNH1025 hPa
Density Alt3,061 ft
Elevation2,684 ft
Report Wrong Elevation
Raw Report
CYYN 231500Z AUTO 32010KT 9SM CLR 15/08 A3027 RMK SLP256 DENSITY
ALT 2800FT=

Extra information for CYYN:More info

Metar Taf Metar & Taf Last 4 Metars F.Rules Stats Wind Profile Meteogram Temp Stats Airport Information Weather charts Add Link Nearby VenuesMetar ALERT Operation Metar Decoded Social comments